Search for airport 
image banner adimage banner adimage banner ad
image banner ad

PS85 - River Hill

Located in Bloomsburg, United States

ICAO - PS85, IATA -

Data provided by Airmate  

General information

Coordinates: N40°59'10" W76°25'45"
Elevation is 860 feet MSL.
Magnetic variation is -11° East
View others Airports in Pennsylvania

Operational data

Special qualification required
Current time UTC:
Current local time:
Weather at : KHZL - Hazleton Rgnl ( 36 km )
METAR: KHZL 190035Z AUTO 00000KT 10SM SCT085 18/06 A3032 RMK AO2
View NOTAMs / SUP AIP / TFR affecting this airport [VIEW]
Communications frequencies: [VIEW]

Runways:

Airport contact information

Address: Bloomsburg United States

Satellite view of PS85